sensor_id;sensor_type;location;lat;lon;timestamp;P1;durP1;ratioP1;P2;durP2;ratioP2
51838;SDS011;37886;53.174;6.368;2023-07-31T00:00:26;927.05;;;701.92;;
51838;SDS011;37886;53.174;6.368;2023-07-31T00:02:52;956.35;;;713.42;;
51838;SDS011;37886;53.174;6.368;2023-07-31T00:05:18;999.28;;;723.67;;
51838;SDS011;37886;53.174;6.368;2023-07-31T00:07:43;895.85;;;705.03;;
51838;SDS011;37886;53.174;6.368;2023-07-31T00:10:09;940.47;;;710.63;;
51838;SDS011;37886;53.174;6.368;2023-07-31T00:12:35;737.30;;;659.10;;
51838;SDS011;37886;53.174;6.368;2023-07-31T00:15:01;764.85;;;660.20;;
51838;SDS011;37886;53.174;6.368;2023-07-31T00:17:27;879.08;;;689.03;;
51838;SDS011;37886;53.174;6.368;2023-07-31T00:19:53;851.00;;;672.90;;
51838;SDS011;37886;53.174;6.368;2023-07-31T00:22:19;754.85;;;674.05;;
51838;SDS011;37886;53.174;6.368;2023-07-31T00:24:45;947.58;;;704.63;;
51838;SDS011;37886;53.174;6.368;2023-07-31T00:27:10;956.95;;;709.45;;
51838;SDS011;37886;53.174;6.368;2023-07-31T00:29:36;764.58;;;684.33;;
51838;SDS011;37886;53.174;6.368;2023-07-31T00:32:02;813.72;;;650.03;;
51838;SDS011;37886;53.174;6.368;2023-07-31T00:34:27;736.95;;;648.72;;
51838;SDS011;37886;53.174;6.368;2023-07-31T00:36:53;862.88;;;692.13;;
51838;SDS011;37886;53.174;6.368;2023-07-31T00:39:19;757.85;;;674.42;;
51838;SDS011;37886;53.174;6.368;2023-07-31T00:41:44;761.90;;;640.50;;
51838;SDS011;37886;53.174;6.368;2023-07-31T00:44:10;805.88;;;658.38;;
51838;SDS011;37886;53.174;6.368;2023-07-31T00:46:36;740.72;;;647.97;;
51838;SDS011;37886;53.174;6.368;2023-07-31T00:49:02;667.80;;;579.58;;
51838;SDS011;37886;53.174;6.368;2023-07-31T00:51:28;730.80;;;652.30;;
51838;SDS011;37886;53.174;6.368;2023-07-31T00:53:54;776.15;;;698.08;;
51838;SDS011;37886;53.174;6.368;2023-07-31T00:56:21;738.10;;;664.65;;
51838;SDS011;37886;53.174;6.368;2023-07-31T00:58:47;838.78;;;751.42;;
51838;SDS011;37886;53.174;6.368;2023-07-31T01:01:12;799.40;;;718.60;;
51838;SDS011;37886;53.174;6.368;2023-07-31T01:03:38;796.08;;;716.85;;
51838;SDS011;37886;53.174;6.368;2023-07-31T01:11:31;835.60;;;738.20;;
51838;SDS011;37886;53.174;6.368;2023-07-31T01:13:59;796.40;;;710.58;;
51838;SDS011;37886;53.174;6.368;2023-07-31T01:16:26;818.80;;;732.55;;
51838;SDS011;37886;53.174;6.368;2023-07-31T01:18:52;861.85;;;678.63;;
51838;SDS011;37886;53.174;6.368;2023-07-31T01:26:36;802.95;;;688.20;;
51838;SDS011;37886;53.174;6.368;2023-07-31T01:29:14;859.17;;;768.45;;
51838;SDS011;37886;53.174;6.368;2023-07-31T01:31:45;743.90;;;658.03;;
51838;SDS011;37886;53.174;6.368;2023-07-31T01:34:15;803.90;;;722.50;;
51838;SDS011;37886;53.174;6.368;2023-07-31T01:36:43;787.08;;;700.05;;
51838;SDS011;37886;53.174;6.368;2023-07-31T01:39:09;787.50;;;701.92;;
51838;SDS011;37886;53.174;6.368;2023-07-31T01:41:35;819.63;;;730.58;;
51838;SDS011;37886;53.174;6.368;2023-07-31T01:44:00;823.30;;;735.50;;
51838;SDS011;37886;53.174;6.368;2023-07-31T01:46:26;826.15;;;704.97;;
51838;SDS011;37886;53.174;6.368;2023-07-31T01:48:52;755.30;;;671.97;;
51838;SDS011;37886;53.174;6.368;2023-07-31T01:51:17;837.30;;;745.67;;
51838;SDS011;37886;53.174;6.368;2023-07-31T01:53:43;891.08;;;793.88;;
51838;SDS011;37886;53.174;6.368;2023-07-31T01:56:09;791.28;;;690.22;;
51838;SDS011;37886;53.174;6.368;2023-07-31T01:58:34;843.00;;;750.88;;
51838;SDS011;37886;53.174;6.368;2023-07-31T02:01:00;820.13;;;731.72;;
51838;SDS011;37886;53.174;6.368;2023-07-31T02:03:25;863.17;;;768.70;;
51838;SDS011;37886;53.174;6.368;2023-07-31T02:05:51;858.88;;;767.67;;
51838;SDS011;37886;53.174;6.368;2023-07-31T02:08:18;894.58;;;769.53;;
51838;SDS011;37886;53.174;6.368;2023-07-31T02:10:44;936.75;;;824.22;;
51838;SDS011;37886;53.174;6.368;2023-07-31T02:13:10;918.60;;;818.03;;
51838;SDS011;37886;53.174;6.368;2023-07-31T02:15:36;861.03;;;726.47;;
51838;SDS011;37886;53.174;6.368;2023-07-31T02:18:02;843.65;;;747.05;;
51838;SDS011;37886;53.174;6.368;2023-07-31T02:20:27;841.00;;;748.63;;
51838;SDS011;37886;53.174;6.368;2023-07-31T02:22:53;778.35;;;693.22;;
51838;SDS011;37886;53.174;6.368;2023-07-31T02:25:19;883.42;;;786.00;;
51838;SDS011;37886;53.174;6.368;2023-07-31T02:27:44;857.72;;;752.78;;
51838;SDS011;37886;53.174;6.368;2023-07-31T02:30:10;931.78;;;809.65;;
51838;SDS011;37886;53.174;6.368;2023-07-31T02:32:36;844.75;;;751.15;;
51838;SDS011;37886;53.174;6.368;2023-07-31T02:35:02;828.97;;;726.28;;
51838;SDS011;37886;53.174;6.368;2023-07-31T02:37:28;887.65;;;789.85;;
51838;SDS011;37886;53.174;6.368;2023-07-31T02:39:54;808.70;;;717.63;;
51838;SDS011;37886;53.174;6.368;2023-07-31T02:42:20;918.65;;;817.67;;
51838;SDS011;37886;53.174;6.368;2023-07-31T02:44:46;860.63;;;768.00;;
51838;SDS011;37886;53.174;6.368;2023-07-31T02:47:11;832.42;;;741.00;;
51838;SDS011;37886;53.174;6.368;2023-07-31T02:49:37;918.05;;;808.40;;
51838;SDS011;37886;53.174;6.368;2023-07-31T02:52:03;933.17;;;818.67;;
51838;SDS011;37886;53.174;6.368;2023-07-31T02:54:29;906.53;;;757.03;;
51838;SDS011;37886;53.174;6.368;2023-07-31T02:56:54;975.05;;;851.50;;
51838;SDS011;37886;53.174;6.368;2023-07-31T02:59:20;802.97;;;714.55;;
51838;SDS011;37886;53.174;6.368;2023-07-31T03:01:46;891.47;;;793.33;;
51838;SDS011;37886;53.174;6.368;2023-07-31T03:04:12;836.70;;;706.78;;
51838;SDS011;37886;53.174;6.368;2023-07-31T03:06:37;863.72;;;773.67;;
51838;SDS011;37886;53.174;6.368;2023-07-31T03:09:03;865.58;;;773.75;;
51838;SDS011;37886;53.174;6.368;2023-07-31T03:11:28;875.70;;;781.45;;
51838;SDS011;37886;53.174;6.368;2023-07-31T03:13:54;894.25;;;797.10;;
51838;SDS011;37886;53.174;6.368;2023-07-31T03:16:20;935.70;;;805.42;;
51838;SDS011;37886;53.174;6.368;2023-07-31T03:18:45;878.00;;;783.63;;
51838;SDS011;37886;53.174;6.368;2023-07-31T03:21:12;962.65;;;826.22;;
51838;SDS011;37886;53.174;6.368;2023-07-31T03:23:37;885.50;;;780.50;;
51838;SDS011;37886;53.174;6.368;2023-07-31T03:26:06;914.13;;;813.15;;
51838;SDS011;37886;53.174;6.368;2023-07-31T03:28:32;961.20;;;832.17;;
51838;SDS011;37886;53.174;6.368;2023-07-31T03:30:58;916.95;;;813.03;;
51838;SDS011;37886;53.174;6.368;2023-07-31T03:33:24;909.72;;;806.08;;
51838;SDS011;37886;53.174;6.368;2023-07-31T03:35:50;904.45;;;808.50;;
51838;SDS011;37886;53.174;6.368;2023-07-31T03:38:16;928.83;;;812.65;;
51838;SDS011;37886;53.174;6.368;2023-07-31T03:40:41;912.58;;;811.80;;
51838;SDS011;37886;53.174;6.368;2023-07-31T03:43:07;951.90;;;829.05;;
51838;SDS011;37886;53.174;6.368;2023-07-31T03:45:33;848.13;;;758.53;;
51838;SDS011;37886;53.174;6.368;2023-07-31T03:47:58;885.53;;;788.80;;
51838;SDS011;37886;53.174;6.368;2023-07-31T03:50:24;901.17;;;803.70;;
51838;SDS011;37886;53.174;6.368;2023-07-31T03:52:50;900.53;;;805.47;;
51838;SDS011;37886;53.174;6.368;2023-07-31T03:55:16;918.35;;;817.15;;
51838;SDS011;37886;53.174;6.368;2023-07-31T03:57:42;868.80;;;773.58;;
51838;SDS011;37886;53.174;6.368;2023-07-31T04:00:09;912.38;;;811.08;;
51838;SDS011;37886;53.174;6.368;2023-07-31T04:02:35;936.78;;;832.42;;
51838;SDS011;37886;53.174;6.368;2023-07-31T04:05:00;900.90;;;800.85;;
51838;SDS011;37886;53.174;6.368;2023-07-31T04:07:26;916.55;;;816.85;;
51838;SDS011;37886;53.174;6.368;2023-07-31T04:09:52;878.67;;;785.95;;
51838;SDS011;37886;53.174;6.368;2023-07-31T04:12:17;914.33;;;796.85;;
51838;SDS011;37886;53.174;6.368;2023-07-31T04:14:43;896.25;;;802.03;;
51838;SDS011;37886;53.174;6.368;2023-07-31T04:17:09;912.75;;;795.45;;
51838;SDS011;37886;53.174;6.368;2023-07-31T04:19:34;891.85;;;782.63;;
51838;SDS011;37886;53.174;6.368;2023-07-31T04:22:00;899.75;;;805.00;;
51838;SDS011;37886;53.174;6.368;2023-07-31T04:24:26;907.50;;;767.25;;
51838;SDS011;37886;53.174;6.368;2023-07-31T04:26:51;930.45;;;786.78;;
51838;SDS011;37886;53.174;6.368;2023-07-31T04:29:18;954.72;;;779.90;;
51838;SDS011;37886;53.174;6.368;2023-07-31T04:31:43;940.63;;;841.92;;
51838;SDS011;37886;53.174;6.368;2023-07-31T04:34:09;927.63;;;807.67;;
51838;SDS011;37886;53.174;6.368;2023-07-31T04:36:36;969.75;;;792.78;;
51838;SDS011;37886;53.174;6.368;2023-07-31T04:39:02;879.08;;;735.53;;
51838;SDS011;37886;53.174;6.368;2023-07-31T04:41:28;926.83;;;826.92;;
51838;SDS011;37886;53.174;6.368;2023-07-31T04:43:53;901.17;;;802.33;;
51838;SDS011;37886;53.174;6.368;2023-07-31T04:46:19;881.15;;;787.40;;
51838;SDS011;37886;53.174;6.368;2023-07-31T04:48:45;905.60;;;801.88;;
51838;SDS011;37886;53.174;6.368;2023-07-31T04:51:11;868.22;;;748.53;;
51838;SDS011;37886;53.174;6.368;2023-07-31T04:53:36;923.25;;;824.75;;
51838;SDS011;37886;53.174;6.368;2023-07-31T04:56:02;908.13;;;810.45;;
51838;SDS011;37886;53.174;6.368;2023-07-31T04:58:28;884.15;;;779.92;;
51838;SDS011;37886;53.174;6.368;2023-07-31T05:00:54;933.78;;;775.40;;
51838;SDS011;37886;53.174;6.368;2023-07-31T05:03:19;972.42;;;756.20;;
51838;SDS011;37886;53.174;6.368;2023-07-31T05:05:45;901.88;;;803.25;;
51838;SDS011;37886;53.174;6.368;2023-07-31T05:08:11;903.70;;;797.45;;
51838;SDS011;37886;53.174;6.368;2023-07-31T05:10:37;1007.33;;;785.03;;
51838;SDS011;37886;53.174;6.368;2023-07-31T05:13:02;900.10;;;800.35;;
51838;SDS011;37886;53.174;6.368;2023-07-31T05:15:28;879.13;;;784.72;;
51838;SDS011;37886;53.174;6.368;2023-07-31T05:17:54;926.67;;;762.90;;
51838;SDS011;37886;53.174;6.368;2023-07-31T05:20:20;1159.13;;;842.35;;
51838;SDS011;37886;53.174;6.368;2023-07-31T05:22:46;920.05;;;783.72;;
51838;SDS011;37886;53.174;6.368;2023-07-31T05:25:12;935.80;;;750.67;;
51838;SDS011;37886;53.174;6.368;2023-07-31T05:27:38;913.38;;;764.75;;
51838;SDS011;37886;53.174;6.368;2023-07-31T05:30:04;1153.82;;;847.97;;
51838;SDS011;37886;53.174;6.368;2023-07-31T05:32:30;1121.78;;;865.80;;
51838;SDS011;37886;53.174;6.368;2023-07-31T05:34:56;1128.10;;;822.78;;
51838;SDS011;37886;53.174;6.368;2023-07-31T05:37:22;1119.55;;;827.30;;
51838;SDS011;37886;53.174;6.368;2023-07-31T05:39:48;1448.45;;;990.75;;
51838;SDS011;37886;53.174;6.368;2023-07-31T05:42:14;1393.75;;;953.47;;
51838;SDS011;37886;53.174;6.368;2023-07-31T05:44:40;1290.78;;;895.40;;
51838;SDS011;37886;53.174;6.368;2023-07-31T05:47:05;1011.97;;;776.72;;
51838;SDS011;37886;53.174;6.368;2023-07-31T05:49:31;1050.88;;;787.63;;
51838;SDS011;37886;53.174;6.368;2023-07-31T05:51:57;955.15;;;778.97;;
51838;SDS011;37886;53.174;6.368;2023-07-31T05:54:22;1093.13;;;805.50;;
51838;SDS011;37886;53.174;6.368;2023-07-31T05:56:48;1334.57;;;918.03;;
51838;SDS011;37886;53.174;6.368;2023-07-31T05:59:14;1194.55;;;842.83;;
51838;SDS011;37886;53.174;6.368;2023-07-31T06:01:39;1189.57;;;843.55;;
51838;SDS011;37886;53.174;6.368;2023-07-31T06:04:05;1183.82;;;842.85;;
51838;SDS011;37886;53.174;6.368;2023-07-31T06:06:31;1175.40;;;851.33;;
51838;SDS011;37886;53.174;6.368;2023-07-31T06:08:56;1145.70;;;842.25;;
51838;SDS011;37886;53.174;6.368;2023-07-31T06:11:22;1099.78;;;833.53;;
51838;SDS011;37886;53.174;6.368;2023-07-31T06:13:48;1160.43;;;836.35;;
51838;SDS011;37886;53.174;6.368;2023-07-31T06:16:15;1362.40;;;922.92;;
51838;SDS011;37886;53.174;6.368;2023-07-31T06:18:42;1191.63;;;849.78;;
51838;SDS011;37886;53.174;6.368;2023-07-31T06:21:08;1394.25;;;935.25;;
51838;SDS011;37886;53.174;6.368;2023-07-31T06:23:36;1270.22;;;874.83;;
51838;SDS011;37886;53.174;6.368;2023-07-31T06:26:02;1515.53;;;926.35;;
51838;SDS011;37886;53.174;6.368;2023-07-31T06:28:28;1317.95;;;911.30;;
51838;SDS011;37886;53.174;6.368;2023-07-31T06:30:54;1341.10;;;904.30;;
51838;SDS011;37886;53.174;6.368;2023-07-31T06:33:20;1175.30;;;841.03;;
51838;SDS011;37886;53.174;6.368;2023-07-31T06:35:46;1298.95;;;881.13;;
51838;SDS011;37886;53.174;6.368;2023-07-31T06:38:11;1222.07;;;887.33;;
51838;SDS011;37886;53.174;6.368;2023-07-31T06:40:37;1477.72;;;968.22;;
51838;SDS011;37886;53.174;6.368;2023-07-31T06:43:03;1289.57;;;895.22;;
51838;SDS011;37886;53.174;6.368;2023-07-31T06:45:36;1252.97;;;892.55;;
51838;SDS011;37886;53.174;6.368;2023-07-31T06:48:02;1370.10;;;896.35;;
51838;SDS011;37886;53.174;6.368;2023-07-31T06:50:29;1268.82;;;933.90;;
51838;SDS011;37886;53.174;6.368;2023-07-31T06:52:55;1257.85;;;893.45;;
51838;SDS011;37886;53.174;6.368;2023-07-31T06:55:21;1311.95;;;942.10;;
51838;SDS011;37886;53.174;6.368;2023-07-31T06:57:47;1113.22;;;872.83;;
51838;SDS011;37886;53.174;6.368;2023-07-31T07:00:14;1008.97;;;806.47;;
51838;SDS011;37886;53.174;6.368;2023-07-31T07:02:40;1100.88;;;864.10;;
51838;SDS011;37886;53.174;6.368;2023-07-31T07:05:06;1187.97;;;901.50;;
51838;SDS011;37886;53.174;6.368;2023-07-31T07:07:33;1004.38;;;842.45;;
51838;SDS011;37886;53.174;6.368;2023-07-31T07:09:59;1102.15;;;831.67;;
51838;SDS011;37886;53.174;6.368;2023-07-31T07:12:25;852.80;;;761.13;;
51838;SDS011;37886;53.174;6.368;2023-07-31T07:14:52;927.47;;;797.30;;
51838;SDS011;37886;53.174;6.368;2023-07-31T07:17:21;808.08;;;723.83;;
51838;SDS011;37886;53.174;6.368;2023-07-31T07:19:47;813.13;;;730.97;;
51838;SDS011;37886;53.174;6.368;2023-07-31T07:22:13;811.47;;;726.75;;
51838;SDS011;37886;53.174;6.368;2023-07-31T07:24:39;821.15;;;733.13;;
51838;SDS011;37886;53.174;6.368;2023-07-31T07:27:05;878.55;;;755.50;;
51838;SDS011;37886;53.174;6.368;2023-07-31T07:29:31;858.42;;;764.17;;
51838;SDS011;37886;53.174;6.368;2023-07-31T07:31:56;1125.85;;;865.13;;
51838;SDS011;37886;53.174;6.368;2023-07-31T07:34:22;1297.68;;;935.92;;
51838;SDS011;37886;53.174;6.368;2023-07-31T07:36:51;1058.47;;;836.10;;
51838;SDS011;37886;53.174;6.368;2023-07-31T07:39:16;1186.65;;;860.55;;
51838;SDS011;37886;53.174;6.368;2023-07-31T07:41:42;1033.78;;;845.65;;
51838;SDS011;37886;53.174;6.368;2023-07-31T07:44:07;944.58;;;796.25;;
51838;SDS011;37886;53.174;6.368;2023-07-31T07:46:33;1025.88;;;842.33;;
51838;SDS011;37886;53.174;6.368;2023-07-31T07:48:59;1009.70;;;839.58;;
51838;SDS011;37886;53.174;6.368;2023-07-31T07:51:24;1085.72;;;858.33;;
51838;SDS011;37886;53.174;6.368;2023-07-31T07:53:50;939.53;;;782.90;;
51838;SDS011;37886;53.174;6.368;2023-07-31T07:56:16;1109.70;;;818.05;;
51838;SDS011;37886;53.174;6.368;2023-07-31T07:58:42;975.25;;;835.67;;
51838;SDS011;37886;53.174;6.368;2023-07-31T08:01:07;821.10;;;728.70;;
51838;SDS011;37886;53.174;6.368;2023-07-31T08:03:33;844.80;;;747.80;;
51838;SDS011;37886;53.174;6.368;2023-07-31T08:05:59;841.38;;;748.25;;
51838;SDS011;37886;53.174;6.368;2023-07-31T08:08:26;855.33;;;763.55;;
51838;SDS011;37886;53.174;6.368;2023-07-31T08:10:52;997.42;;;838.63;;
51838;SDS011;37886;53.174;6.368;2023-07-31T08:13:18;994.78;;;826.42;;
51838;SDS011;37886;53.174;6.368;2023-07-31T08:15:44;838.05;;;746.55;;
51838;SDS011;37886;53.174;6.368;2023-07-31T08:18:10;875.00;;;756.45;;
51838;SDS011;37886;53.174;6.368;2023-07-31T08:20:36;928.60;;;795.90;;
51838;SDS011;37886;53.174;6.368;2023-07-31T08:23:02;977.70;;;811.00;;
51838;SDS011;37886;53.174;6.368;2023-07-31T08:25:28;829.58;;;743.58;;
51838;SDS011;37886;53.174;6.368;2023-07-31T08:27:54;811.63;;;721.63;;
51838;SDS011;37886;53.174;6.368;2023-07-31T08:30:20;1170.18;;;877.80;;
51838;SDS011;37886;53.174;6.368;2023-07-31T08:32:46;1043.47;;;856.15;;
51838;SDS011;37886;53.174;6.368;2023-07-31T08:35:12;1248.93;;;946.53;;
51838;SDS011;37886;53.174;6.368;2023-07-31T08:37:38;1191.65;;;907.72;;
51838;SDS011;37886;53.174;6.368;2023-07-31T08:40:04;1069.05;;;862.05;;
51838;SDS011;37886;53.174;6.368;2023-07-31T08:42:31;895.65;;;796.53;;
51838;SDS011;37886;53.174;6.368;2023-07-31T08:44:57;1285.18;;;861.90;;
51838;SDS011;37886;53.174;6.368;2023-07-31T08:47:25;1143.50;;;889.55;;
51838;SDS011;37886;53.174;6.368;2023-07-31T08:49:52;1278.65;;;852.38;;
51838;SDS011;37886;53.174;6.368;2023-07-31T08:52:19;884.05;;;785.88;;
51838;SDS011;37886;53.174;6.368;2023-07-31T08:54:45;1021.00;;;821.85;;
51838;SDS011;37886;53.174;6.368;2023-07-31T08:57:11;1114.35;;;871.25;;
51838;SDS011;37886;53.174;6.368;2023-07-31T08:59:37;997.13;;;819.95;;
51838;SDS011;37886;53.174;6.368;2023-07-31T09:02:07;897.30;;;788.90;;
51838;SDS011;37886;53.174;6.368;2023-07-31T09:04:33;1098.38;;;873.67;;
51838;SDS011;37886;53.174;6.368;2023-07-31T09:07:01;926.25;;;803.67;;
51838;SDS011;37886;53.174;6.368;2023-07-31T09:09:29;1074.30;;;860.85;;
51838;SDS011;37886;53.174;6.368;2023-07-31T09:11:57;1088.18;;;866.55;;
51838;SDS011;37886;53.174;6.368;2023-07-31T09:14:24;1089.72;;;870.47;;
51838;SDS011;37886;53.174;6.368;2023-07-31T09:16:51;1305.18;;;977.38;;
51838;SDS011;37886;53.174;6.368;2023-07-31T09:19:28;827.60;;;741.03;;
51838;SDS011;37886;53.174;6.368;2023-07-31T09:21:58;872.05;;;777.45;;
51838;SDS011;37886;53.174;6.368;2023-07-31T09:24:28;911.53;;;806.58;;
51838;SDS011;37886;53.174;6.368;2023-07-31T09:26:55;807.97;;;723.42;;
51838;SDS011;37886;53.174;6.368;2023-07-31T09:29:22;1183.60;;;913.22;;
51838;SDS011;37886;53.174;6.368;2023-07-31T09:31:48;942.38;;;803.60;;
51838;SDS011;37886;53.174;6.368;2023-07-31T09:34:14;1305.95;;;895.30;;
51838;SDS011;37886;53.174;6.368;2023-07-31T09:36:43;1292.97;;;947.00;;
51838;SDS011;37886;53.174;6.368;2023-07-31T09:39:10;1188.70;;;921.40;;
51838;SDS011;37886;53.174;6.368;2023-07-31T09:41:37;1182.18;;;907.58;;
51838;SDS011;37886;53.174;6.368;2023-07-31T09:44:07;934.75;;;810.40;;
51838;SDS011;37886;53.174;6.368;2023-07-31T09:46:37;1222.20;;;955.05;;
51838;SDS011;37886;53.174;6.368;2023-07-31T09:49:09;1228.70;;;928.08;;
51838;SDS011;37886;53.174;6.368;2023-07-31T09:51:37;1143.32;;;897.65;;
51838;SDS011;37886;53.174;6.368;2023-07-31T09:54:13;903.75;;;761.13;;
51838;SDS011;37886;53.174;6.368;2023-07-31T09:56:45;1223.00;;;950.70;;
51838;SDS011;37886;53.174;6.368;2023-07-31T09:59:12;1266.90;;;945.00;;
51838;SDS011;37886;53.174;6.368;2023-07-31T10:01:42;1242.75;;;953.33;;
51838;SDS011;37886;53.174;6.368;2023-07-31T10:04:10;1312.13;;;949.50;;
51838;SDS011;37886;53.174;6.368;2023-07-31T10:06:37;1264.28;;;949.78;;
51838;SDS011;37886;53.174;6.368;2023-07-31T10:09:08;1012.70;;;824.58;;
51838;SDS011;37886;53.174;6.368;2023-07-31T10:11:59;959.70;;;801.80;;
51838;SDS011;37886;53.174;6.368;2023-07-31T10:14:25;1176.25;;;898.88;;
51838;SDS011;37886;53.174;6.368;2023-07-31T10:16:52;1150.70;;;912.83;;
51838;SDS011;37886;53.174;6.368;2023-07-31T10:19:18;1225.13;;;924.38;;
51838;SDS011;37886;53.174;6.368;2023-07-31T10:21:45;1275.03;;;945.05;;
51838;SDS011;37886;53.174;6.368;2023-07-31T10:24:13;1011.72;;;828.65;;
51838;SDS011;37886;53.174;6.368;2023-07-31T10:26:40;1401.35;;;986.97;;
51838;SDS011;37886;53.174;6.368;2023-07-31T10:29:08;1085.63;;;856.35;;
51838;SDS011;37886;53.174;6.368;2023-07-31T10:31:34;855.28;;;722.85;;
51838;SDS011;37886;53.174;6.368;2023-07-31T10:34:00;736.65;;;653.80;;
51838;SDS011;37886;53.174;6.368;2023-07-31T10:36:28;1251.32;;;960.67;;
51838;SDS011;37886;53.174;6.368;2023-07-31T10:38:55;1188.10;;;896.55;;
51838;SDS011;37886;53.174;6.368;2023-07-31T10:41:28;852.08;;;737.72;;
51838;SDS011;37886;53.174;6.368;2023-07-31T10:43:57;1136.15;;;860.42;;
51838;SDS011;37886;53.174;6.368;2023-07-31T10:46:24;1120.25;;;868.90;;
51838;SDS011;37886;53.174;6.368;2023-07-31T10:48:57;1453.13;;;916.63;;
51838;SDS011;37886;53.174;6.368;2023-07-31T10:51:24;1114.05;;;880.35;;
51838;SDS011;37886;53.174;6.368;2023-07-31T10:54:12;1131.07;;;894.28;;
51838;SDS011;37886;53.174;6.368;2023-07-31T10:56:40;863.13;;;754.08;;
51838;SDS011;37886;53.174;6.368;2023-07-31T10:59:09;792.28;;;706.90;;
51838;SDS011;37886;53.174;6.368;2023-07-31T11:01:53;831.05;;;747.83;;
51838;SDS011;37886;53.174;6.368;2023-07-31T11:04:24;797.25;;;709.83;;
51838;SDS011;37886;53.174;6.368;2023-07-31T11:06:57;926.78;;;773.83;;
51838;SDS011;37886;53.174;6.368;2023-07-31T11:09:25;840.88;;;728.13;;
51838;SDS011;37886;53.174;6.368;2023-07-31T11:11:54;799.88;;;716.95;;
51838;SDS011;37886;53.174;6.368;2023-07-31T11:14:20;1262.20;;;838.42;;
51838;SDS011;37886;53.174;6.368;2023-07-31T11:16:49;808.33;;;724.25;;
51838;SDS011;37886;53.174;6.368;2023-07-31T11:19:23;858.53;;;763.60;;
51838;SDS011;37886;53.174;6.368;2023-07-31T11:21:49;1015.30;;;823.53;;
51838;SDS011;37886;53.174;6.368;2023-07-31T11:24:16;803.78;;;723.28;;
51838;SDS011;37886;53.174;6.368;2023-07-31T11:26:52;792.28;;;712.97;;
51838;SDS011;37886;53.174;6.368;2023-07-31T11:29:18;823.58;;;739.90;;
51838;SDS011;37886;53.174;6.368;2023-07-31T11:31:45;909.88;;;773.80;;
51838;SDS011;37886;53.174;6.368;2023-07-31T11:34:13;771.00;;;693.30;;
51838;SDS011;37886;53.174;6.368;2023-07-31T11:36:40;820.63;;;736.80;;
51838;SDS011;37886;53.174;6.368;2023-07-31T11:39:07;977.80;;;806.33;;
51838;SDS011;37886;53.174;6.368;2023-07-31T11:41:33;822.83;;;727.17;;
51838;SDS011;37886;53.174;6.368;2023-07-31T11:43:59;931.90;;;783.58;;
51838;SDS011;37886;53.174;6.368;2023-07-31T11:46:26;809.35;;;719.72;;
51838;SDS011;37886;53.174;6.368;2023-07-31T11:48:55;893.13;;;766.58;;
51838;SDS011;37886;53.174;6.368;2023-07-31T11:51:25;854.75;;;762.10;;
51838;SDS011;37886;53.174;6.368;2023-07-31T11:53:53;906.10;;;806.58;;
51838;SDS011;37886;53.174;6.368;2023-07-31T11:56:22;941.25;;;803.50;;
51838;SDS011;37886;53.174;6.368;2023-07-31T11:58:50;816.00;;;731.42;;
51838;SDS011;37886;53.174;6.368;2023-07-31T12:01:22;816.10;;;733.55;;
51838;SDS011;37886;53.174;6.368;2023-07-31T12:03:49;810.90;;;720.80;;
51838;SDS011;37886;53.174;6.368;2023-07-31T12:06:15;838.20;;;750.42;;
51838;SDS011;37886;53.174;6.368;2023-07-31T12:08:41;855.28;;;760.90;;
51838;SDS011;37886;53.174;6.368;2023-07-31T12:11:07;840.80;;;751.50;;
51838;SDS011;37886;53.174;6.368;2023-07-31T12:13:38;810.25;;;727.20;;
51838;SDS011;37886;53.174;6.368;2023-07-31T12:16:04;1070.22;;;773.08;;
51838;SDS011;37886;53.174;6.368;2023-07-31T12:18:33;820.33;;;732.53;;
51838;SDS011;37886;53.174;6.368;2023-07-31T12:21:01;798.70;;;712.60;;
51838;SDS011;37886;53.174;6.368;2023-07-31T12:23:32;808.85;;;722.60;;
51838;SDS011;37886;53.174;6.368;2023-07-31T12:25:59;939.97;;;785.33;;
51838;SDS011;37886;53.174;6.368;2023-07-31T12:28:25;847.78;;;757.20;;
51838;SDS011;37886;53.174;6.368;2023-07-31T12:30:51;909.28;;;774.67;;
51838;SDS011;37886;53.174;6.368;2023-07-31T12:33:18;840.75;;;752.72;;
51838;SDS011;37886;53.174;6.368;2023-07-31T12:35:45;968.22;;;760.17;;
51838;SDS011;37886;53.174;6.368;2023-07-31T12:38:12;809.63;;;719.70;;
51838;SDS011;37886;53.174;6.368;2023-07-31T12:40:39;1020.15;;;776.40;;
51838;SDS011;37886;53.174;6.368;2023-07-31T12:43:05;803.97;;;719.67;;
51838;SDS011;37886;53.174;6.368;2023-07-31T12:45:32;776.33;;;696.10;;
51838;SDS011;37886;53.174;6.368;2023-07-31T12:47:58;780.50;;;698.83;;
51838;SDS011;37886;53.174;6.368;2023-07-31T12:50:24;807.47;;;724.60;;
51838;SDS011;37886;53.174;6.368;2023-07-31T12:52:51;782.05;;;703.08;;
51838;SDS011;37886;53.174;6.368;2023-07-31T12:55:18;800.83;;;719.45;;
51838;SDS011;37886;53.174;6.368;2023-07-31T12:57:44;1146.00;;;783.45;;
51838;SDS011;37886;53.174;6.368;2023-07-31T13:00:10;859.70;;;721.88;;
51838;SDS011;37886;53.174;6.368;2023-07-31T13:02:37;925.08;;;789.08;;
51838;SDS011;37886;53.174;6.368;2023-07-31T13:05:03;1143.70;;;911.58;;
51838;SDS011;37886;53.174;6.368;2023-07-31T13:07:30;822.85;;;719.20;;
51838;SDS011;37886;53.174;6.368;2023-07-31T13:09:55;719.05;;;638.83;;
51838;SDS011;37886;53.174;6.368;2023-07-31T13:12:21;1092.88;;;799.42;;
51838;SDS011;37886;53.174;6.368;2023-07-31T13:14:47;738.65;;;657.67;;
51838;SDS011;37886;53.174;6.368;2023-07-31T13:17:12;710.90;;;638.70;;
51838;SDS011;37886;53.174;6.368;2023-07-31T13:19:38;733.92;;;659.03;;
51838;SDS011;37886;53.174;6.368;2023-07-31T13:22:04;817.15;;;730.63;;
51838;SDS011;37886;53.174;6.368;2023-07-31T13:24:29;774.30;;;697.80;;
51838;SDS011;37886;53.174;6.368;2023-07-31T13:26:55;971.75;;;817.70;;
51838;SDS011;37886;53.174;6.368;2023-07-31T13:29:21;1135.55;;;821.53;;
51838;SDS011;37886;53.174;6.368;2023-07-31T13:31:47;1064.60;;;857.30;;
51838;SDS011;37886;53.174;6.368;2023-07-31T13:34:13;859.67;;;769.97;;
51838;SDS011;37886;53.174;6.368;2023-07-31T13:36:39;914.03;;;770.08;;
51838;SDS011;37886;53.174;6.368;2023-07-31T13:39:04;1122.63;;;821.05;;
51838;SDS011;37886;53.174;6.368;2023-07-31T13:41:30;847.70;;;737.97;;
51838;SDS011;37886;53.174;6.368;2023-07-31T13:43:55;928.38;;;743.80;;
51838;SDS011;37886;53.174;6.368;2023-07-31T13:46:21;932.38;;;768.55;;
51838;SDS011;37886;53.174;6.368;2023-07-31T13:48:47;807.45;;;708.00;;
51838;SDS011;37886;53.174;6.368;2023-07-31T13:51:12;765.67;;;683.90;;
51838;SDS011;37886;53.174;6.368;2023-07-31T13:53:38;774.58;;;692.60;;
51838;SDS011;37886;53.174;6.368;2023-07-31T13:56:04;806.97;;;729.45;;
51838;SDS011;37886;53.174;6.368;2023-07-31T13:58:29;828.63;;;729.47;;
51838;SDS011;37886;53.174;6.368;2023-07-31T14:00:55;792.85;;;705.40;;